Time;durP1;ratioP1;P1;durP2;ratioP2;P2;SDS_P1;SDS_P2;PMS_P1;PMS_P2;Temp;Humidity;BMP_temperature;BMP_pressure;BME280_temperature;BME280_humidity;BME280_pressure;Samples;Min_cycle;Max_cycle;Signal;HPM_P1;HPM_P2
2021/09/03 00:00:33;;;;;;;2.65;0.90;;;;;;;;;;5037393;28;20032;-69
2021/09/03 00:03:00;;;;;;;5.97;1.20;;;;;;;;;;5040876;28;20028;-68
2021/09/03 00:05:28;;;;;;;3.97;1.10;;;;;;;;;;5037484;28;20037;-70
2021/09/03 00:07:55;;;;;;;3.63;1.00;;;;;;;;;;5039026;28;20021;-69
2021/09/03 00:10:22;;;;;;;4.32;1.15;;;;;;;;;;5037861;28;20037;-69
2021/09/03 00:12:49;;;;;;;3.05;1.10;;;;;;;;;;5046625;28;20040;-69
2021/09/03 00:15:17;;;;;;;2.08;0.98;;;;;;;;;;5042258;28;20421;-69
2021/09/03 00:17:44;;;;;;;6.18;1.52;;;;;;;;;;5038692;28;20160;-70
2021/09/03 00:20:12;;;;;;;7.53;1.60;;;;;;;;;;5037495;28;20029;-70
2021/09/03 00:22:40;;;;;;;2.13;1.00;;;;;;;;;;5040592;28;20025;-70
2021/09/03 00:25:08;;;;;;;4.95;1.35;;;;;;;;;;5038569;28;20532;-69
2021/09/03 00:27:35;;;;;;;3.85;1.10;;;;;;;;;;5043458;28;20028;-70
2021/09/03 00:30:03;;;;;;;4.90;1.25;;;;;;;;;;5050993;28;20036;-70
2021/09/03 00:32:30;;;;;;;2.38;0.90;;;;;;;;;;5046674;28;20504;-69
2021/09/03 00:34:57;;;;;;;5.35;1.10;;;;;;;;;;5034182;28;20028;-69
2021/09/03 00:37:24;;;;;;;2.70;0.98;;;;;;;;;;5053028;28;20049;-69
2021/09/03 00:39:51;;;;;;;1.92;1.00;;;;;;;;;;5043153;28;20100;-69
2021/09/03 00:42:18;;;;;;;3.80;1.60;;;;;;;;;;5031181;28;20390;-69
2021/09/03 00:44:46;;;;;;;4.35;0.98;;;;;;;;;;5032510;28;20026;-70
2021/09/03 00:47:13;;;;;;;3.97;1.25;;;;;;;;;;5033615;28;20032;-69
2021/09/03 00:49:40;;;;;;;4.03;1.10;;;;;;;;;;5033576;28;20025;-70
2021/09/03 00:52:08;;;;;;;2.88;1.30;;;;;;;;;;5037057;28;20032;-72
2021/09/03 00:54:35;;;;;;;3.53;1.17;;;;;;;;;;5040277;28;20033;-70
2021/09/03 00:57:02;;;;;;;3.58;1.55;;;;;;;;;;5046515;28;20497;-70
2021/09/03 00:59:30;;;;;;;2.65;0.90;;;;;;;;;;5035913;28;20459;-70
2021/09/03 01:01:57;;;;;;;3.83;1.08;;;;;;;;;;5039405;28;20112;-70
2021/09/03 01:04:24;;;;;;;3.97;1.48;;;;;;;;;;5042705;28;20018;-70
2021/09/03 01:06:51;;;;;;;4.28;1.27;;;;;;;;;;5031201;28;20025;-70
2021/09/03 01:09:18;;;;;;;4.43;1.08;;;;;;;;;;5038309;28;20029;-69
2021/09/03 01:11:46;;;;;;;5.78;1.13;;;;;;;;;;5045411;28;20028;-70
2021/09/03 01:14:13;;;;;;;2.63;1.10;;;;;;;;;;5039953;28;20513;-70
2021/09/03 01:16:40;;;;;;;3.38;0.90;;;;;;;;;;5048388;28;20025;-70
2021/09/03 01:19:08;;;;;;;3.38;1.30;;;;;;;;;;5032296;28;20490;-70
2021/09/03 01:21:35;;;;;;;2.80;0.82;;;;;;;;;;5032348;28;20076;-68
2021/09/03 01:24:03;;;;;;;4.82;1.10;;;;;;;;;;5037595;28;20159;-68
2021/09/03 01:26:30;;;;;;;5.35;0.88;;;;;;;;;;5042136;28;20098;-68
2021/09/03 01:28:57;;;;;;;3.92;1.02;;;;;;;;;;5032082;28;20025;-69
2021/09/03 01:31:24;;;;;;;3.58;1.33;;;;;;;;;;5035944;28;20026;-69
2021/09/03 01:33:55;;;;;;;3.35;1.50;;;;;;;;;;5032456;28;20036;-69
2021/09/03 01:36:26;;;;;;;3.25;1.27;;;;;;;;;;5031624;28;20033;-69
2021/09/03 01:38:53;;;;;;;4.88;1.60;;;;;;;;;;5046113;28;20064;-70
2021/09/03 01:41:21;;;;;;;4.55;1.58;;;;;;;;;;5042515;28;20033;-69
2021/09/03 01:43:48;;;;;;;6.47;1.80;;;;;;;;;;5036540;28;20132;-69
2021/09/03 01:46:15;;;;;;;3.92;1.25;;;;;;;;;;5030616;28;20064;-69
2021/09/03 01:48:42;;;;;;;4.82;2.15;;;;;;;;;;5029597;28;20022;-68
2021/09/03 01:51:09;;;;;;;5.28;2.65;;;;;;;;;;5033273;28;20033;-69
2021/09/03 01:53:37;;;;;;;7.75;2.00;;;;;;;;;;5039855;28;20022;-69
2021/09/03 01:56:04;;;;;;;8.02;1.50;;;;;;;;;;5033785;28;20036;-69
2021/09/03 01:58:31;;;;;;;7.63;1.67;;;;;;;;;;5037575;28;20106;-69
2021/09/03 02:00:58;;;;;;;7.38;1.77;;;;;;;;;;5038188;28;20041;-68
2021/09/03 02:03:25;;;;;;;8.82;1.80;;;;;;;;;;5030474;28;20021;-69
2021/09/03 02:05:53;;;;;;;8.13;1.90;;;;;;;;;;5032412;28;20041;-68
2021/09/03 02:08:20;;;;;;;8.13;1.30;;;;;;;;;;5035727;28;20059;-69
2021/09/03 02:10:47;;;;;;;7.88;1.83;;;;;;;;;;5035090;28;20496;-69
2021/09/03 02:13:14;;;;;;;7.53;1.30;;;;;;;;;;5033990;28;20025;-69
2021/09/03 02:15:41;;;;;;;11.15;1.30;;;;;;;;;;5034348;28;20017;-69
2021/09/03 02:18:08;;;;;;;10.25;1.70;;;;;;;;;;5030096;28;20458;-69
2021/09/03 02:20:35;;;;;;;4.47;1.10;;;;;;;;;;5030676;28;20029;-69
2021/09/03 02:23:03;;;;;;;9.93;2.22;;;;;;;;;;5035445;28;20056;-69
2021/09/03 02:25:30;;;;;;;4.30;1.20;;;;;;;;;;5036668;28;20124;-69
2021/09/03 02:27:57;;;;;;;7.53;1.40;;;;;;;;;;5030395;28;20025;-69
2021/09/03 02:30:24;;;;;;;7.22;1.15;;;;;;;;;;5043853;28;20029;-69
2021/09/03 02:32:51;;;;;;;7.40;1.30;;;;;;;;;;5033742;28;20026;-70
2021/09/03 02:35:18;;;;;;;5.50;1.27;;;;;;;;;;5035479;28;20029;-71
2021/09/03 02:37:45;;;;;;;5.68;1.42;;;;;;;;;;5041638;28;20041;-69
2021/09/03 02:40:13;;;;;;;7.45;1.20;;;;;;;;;;5036128;28;20022;-69
2021/09/03 02:42:40;;;;;;;4.45;1.10;;;;;;;;;;5034825;28;20021;-69
2021/09/03 02:45:07;;;;;;;6.28;1.27;;;;;;;;;;5039116;28;20030;-69
2021/09/03 02:47:35;;;;;;;4.38;0.80;;;;;;;;;;5038568;28;20064;-70
2021/09/03 02:50:02;;;;;;;3.08;0.73;;;;;;;;;;5031919;28;20482;-69
2021/09/03 02:52:29;;;;;;;6.38;0.93;;;;;;;;;;5031961;28;20033;-70
2021/09/03 02:54:56;;;;;;;5.22;0.98;;;;;;;;;;5030872;28;20104;-69
2021/09/03 02:57:23;;;;;;;6.13;1.05;;;;;;;;;;5028400;28;20080;-69
2021/09/03 02:59:51;;;;;;;6.28;1.23;;;;;;;;;;5041400;28;20040;-69
2021/09/03 03:02:19;;;;;;;4.05;0.73;;;;;;;;;;5050880;28;20485;-69
2021/09/03 03:04:46;;;;;;;3.40;0.70;;;;;;;;;;5039755;28;20033;-69
2021/09/03 03:07:13;;;;;;;4.25;1.00;;;;;;;;;;5031468;28;20040;-69
2021/09/03 03:09:40;;;;;;;5.47;1.17;;;;;;;;;;5031063;28;20024;-71
2021/09/03 03:12:07;;;;;;;4.72;0.98;;;;;;;;;;5045222;28;20083;-69
2021/09/03 03:14:34;;;;;;;6.32;0.80;;;;;;;;;;5036818;28;20051;-70
2021/09/03 03:17:02;;;;;;;9.13;1.17;;;;;;;;;;5034709;28;20030;-71
2021/09/03 03:19:29;;;;;;;6.13;1.00;;;;;;;;;;5044131;28;20041;-71
2021/09/03 03:21:57;;;;;;;6.93;0.82;;;;;;;;;;5033610;28;20133;-69
2021/09/03 03:24:25;;;;;;;4.65;0.90;;;;;;;;;;5034502;28;20053;-71
2021/09/03 03:26:52;;;;;;;5.30;1.30;;;;;;;;;;5035145;28;20017;-69
2021/09/03 03:29:19;;;;;;;4.45;1.45;;;;;;;;;;5034782;28;20527;-70
2021/09/03 03:31:46;;;;;;;4.30;1.48;;;;;;;;;;5049657;28;20037;-69
2021/09/03 03:34:13;;;;;;;7.35;0.80;;;;;;;;;;5048252;28;20024;-69
2021/09/03 03:36:41;;;;;;;6.97;1.23;;;;;;;;;;5044930;28;20595;-69
2021/09/03 03:39:08;;;;;;;4.93;1.17;;;;;;;;;;5051501;28;20098;-69
2021/09/03 03:41:35;;;;;;;6.07;1.15;;;;;;;;;;5053537;28;20029;-69
2021/09/03 03:44:02;;;;;;;3.17;0.65;;;;;;;;;;5049585;28;20076;-69
2021/09/03 03:46:30;;;;;;;6.10;0.90;;;;;;;;;;5033318;28;20042;-69
2021/09/03 03:48:57;;;;;;;4.30;0.70;;;;;;;;;;5042231;28;20037;-69
2021/09/03 03:51:24;;;;;;;3.55;0.75;;;;;;;;;;5034492;28;20463;-69
2021/09/03 03:53:51;;;;;;;5.20;1.10;;;;;;;;;;5036662;28;20099;-71
2021/09/03 03:56:18;;;;;;;6.50;1.10;;;;;;;;;;5053142;28;20469;-69
2021/09/03 03:58:45;;;;;;;7.03;1.02;;;;;;;;;;5051753;28;20032;-69
2021/09/03 04:01:14;;;;;;;6.82;1.05;;;;;;;;;;5054460;28;20126;-69
2021/09/03 04:03:41;;;;;;;4.70;0.90;;;;;;;;;;5051131;28;20028;-69
2021/09/03 04:06:08;;;;;;;4.57;0.80;;;;;;;;;;5034137;28;20048;-68
2021/09/03 04:08:35;;;;;;;5.78;0.93;;;;;;;;;;5033770;28;20022;-69
2021/09/03 04:11:02;;;;;;;8.80;1.13;;;;;;;;;;5032996;28;20367;-68
2021/09/03 04:13:29;;;;;;;4.50;0.70;;;;;;;;;;5049704;28;20138;-70
2021/09/03 04:15:56;;;;;;;6.53;1.40;;;;;;;;;;5036734;28;20102;-68
2021/09/03 04:18:23;;;;;;;8.32;1.65;;;;;;;;;;5034110;28;20049;-68
2021/09/03 04:20:50;;;;;;;5.80;1.00;;;;;;;;;;5034059;28;20478;-68
2021/09/03 04:23:18;;;;;;;8.95;1.30;;;;;;;;;;5040620;28;20036;-68
2021/09/03 04:25:45;;;;;;;5.93;0.80;;;;;;;;;;5034140;28;20037;-68
2021/09/03 04:28:12;;;;;;;4.38;0.93;;;;;;;;;;5033745;28;20033;-68
2021/09/03 04:30:39;;;;;;;5.82;1.23;;;;;;;;;;5034696;28;20029;-70
2021/09/03 04:33:06;;;;;;;5.78;0.80;;;;;;;;;;5039097;28;20029;-68
2021/09/03 04:35:33;;;;;;;4.47;0.80;;;;;;;;;;5033444;28;20091;-69
2021/09/03 04:38:00;;;;;;;6.82;1.08;;;;;;;;;;5032752;28;20048;-69
2021/09/03 04:40:27;;;;;;;6.18;1.58;;;;;;;;;;5033718;28;20120;-70
2021/09/03 04:42:55;;;;;;;8.00;1.80;;;;;;;;;;5034134;28;20091;-70
2021/09/03 04:45:22;;;;;;;5.35;1.00;;;;;;;;;;5035477;28;20025;-70
2021/09/03 04:47:54;;;;;;;5.78;1.17;;;;;;;;;;5033873;28;20045;-70
2021/09/03 04:50:21;;;;;;;6.75;1.25;;;;;;;;;;5032461;28;20115;-69
2021/09/03 04:52:48;;;;;;;7.63;1.30;;;;;;;;;;5036118;28;20053;-70
2021/09/03 04:55:15;;;;;;;6.13;0.95;;;;;;;;;;5034156;28;20465;-69
2021/09/03 04:57:43;;;;;;;4.05;1.20;;;;;;;;;;5036718;28;20017;-68
2021/09/03 05:00:12;;;;;;;7.35;1.13;;;;;;;;;;5033644;28;20076;-69
2021/09/03 05:02:39;;;;;;;5.43;0.85;;;;;;;;;;5041086;28;20025;-69
2021/09/03 05:05:06;;;;;;;6.47;0.88;;;;;;;;;;5035901;28;20033;-70
2021/09/03 05:07:34;;;;;;;8.98;1.50;;;;;;;;;;5031147;28;20059;-69
2021/09/03 05:10:01;;;;;;;4.10;0.75;;;;;;;;;;5032444;28;20378;-69
2021/09/03 05:12:28;;;;;;;9.65;1.02;;;;;;;;;;5032718;28;20021;-70
2021/09/03 05:14:55;;;;;;;10.20;1.88;;;;;;;;;;5034453;28;20040;-68
2021/09/03 05:17:23;;;;;;;10.80;1.52;;;;;;;;;;5033284;28;20041;-70
2021/09/03 05:19:50;;;;;;;11.68;2.10;;;;;;;;;;5040160;28;20382;-70
2021/09/03 05:22:17;;;;;;;7.32;1.38;;;;;;;;;;5032690;28;20083;-69
2021/09/03 05:24:45;;;;;;;8.40;1.13;;;;;;;;;;5032933;28;20044;-71
2021/09/03 05:27:12;;;;;;;8.65;1.40;;;;;;;;;;5032510;28;20052;-70
2021/09/03 05:29:39;;;;;;;10.13;1.92;;;;;;;;;;5032254;28;20463;-69
2021/09/03 05:32:07;;;;;;;13.85;1.85;;;;;;;;;;5031144;28;20239;-70
2021/09/03 05:34:34;;;;;;;9.70;1.52;;;;;;;;;;5032359;28;20026;-69
2021/09/03 05:37:01;;;;;;;10.00;1.90;;;;;;;;;;5035693;28;20024;-69
2021/09/03 05:39:29;;;;;;;9.80;2.42;;;;;;;;;;5043468;28;20129;-69
2021/09/03 05:41:56;;;;;;;9.60;1.80;;;;;;;;;;5046053;28;20473;-69
2021/09/03 05:44:23;;;;;;;9.82;1.70;;;;;;;;;;5033863;28;20049;-70
2021/09/03 05:46:51;;;;;;;12.48;2.20;;;;;;;;;;5031292;28;20021;-70
2021/09/03 05:49:19;;;;;;;11.98;2.22;;;;;;;;;;5035139;28;20036;-71
2021/09/03 05:51:46;;;;;;;13.50;2.15;;;;;;;;;;5050504;28;20025;-70
2021/09/03 05:54:13;;;;;;;9.52;2.28;;;;;;;;;;5050170;28;20491;-70
2021/09/03 05:56:40;;;;;;;11.77;1.92;;;;;;;;;;5052215;28;20112;-70
2021/09/03 05:59:07;;;;;;;13.80;2.65;;;;;;;;;;5044818;28;20385;-70
2021/09/03 06:01:34;;;;;;;13.45;2.70;;;;;;;;;;5046723;28;20432;-70
2021/09/03 06:04:01;;;;;;;14.15;3.45;;;;;;;;;;5041180;28;20041;-70
2021/09/03 06:06:28;;;;;;;11.98;2.60;;;;;;;;;;5039707;28;20441;-70
2021/09/03 06:08:55;;;;;;;11.93;2.38;;;;;;;;;;5041001;28;20049;-70
2021/09/03 06:11:26;;;;;;;16.73;2.70;;;;;;;;;;5039534;28;20108;-72
2021/09/03 06:13:54;;;;;;;16.35;2.53;;;;;;;;;;5035965;28;20105;-71
2021/09/03 06:16:22;;;;;;;13.75;2.90;;;;;;;;;;5035402;28;20103;-68
2021/09/03 06:18:49;;;;;;;17.30;3.00;;;;;;;;;;5036374;28;20482;-69
2021/09/03 06:21:17;;;;;;;13.80;2.85;;;;;;;;;;5032616;28;20046;-69
2021/09/03 06:23:44;;;;;;;16.05;3.35;;;;;;;;;;5045660;28;20037;-70
2021/09/03 06:26:11;;;;;;;14.50;2.42;;;;;;;;;;5035268;28;20036;-70
2021/09/03 06:28:39;;;;;;;16.38;2.75;;;;;;;;;;5033632;28;20033;-70
2021/09/03 06:31:06;;;;;;;15.50;2.60;;;;;;;;;;5031455;28;20021;-70
2021/09/03 06:33:33;;;;;;;25.98;3.10;;;;;;;;;;5040726;28;20033;-70
2021/09/03 06:36:00;;;;;;;16.40;2.85;;;;;;;;;;5033964;28;20489;-70
2021/09/03 06:38:27;;;;;;;26.92;3.88;;;;;;;;;;5033377;28;20109;-70
2021/09/03 06:40:55;;;;;;;18.38;2.97;;;;;;;;;;5037473;28;20091;-70
2021/09/03 06:43:22;;;;;;;19.05;2.70;;;;;;;;;;5032229;28;20022;-70
2021/09/03 06:45:49;;;;;;;16.63;3.17;;;;;;;;;;5034209;28;20486;-72
2021/09/03 06:48:21;;;;;;;17.15;2.70;;;;;;;;;;5032087;28;20029;-70
2021/09/03 06:50:49;;;;;;;22.90;4.05;;;;;;;;;;5034102;28;21222;-70
2021/09/03 06:53:16;;;;;;;21.08;3.70;;;;;;;;;;5038307;28;20044;-70
2021/09/03 06:55:43;;;;;;;16.15;2.70;;;;;;;;;;5030201;28;20486;-68
2021/09/03 06:58:10;;;;;;;17.35;3.08;;;;;;;;;;5035295;28;20115;-70
2021/09/03 07:00:37;;;;;;;19.85;4.20;;;;;;;;;;5035253;28;20033;-71
2021/09/03 07:03:04;;;;;;;18.00;4.05;;;;;;;;;;5035283;28;20022;-72
2021/09/03 07:05:31;;;;;;;20.35;2.80;;;;;;;;;;5043694;28;20041;-73
2021/09/03 07:07:58;;;;;;;16.83;3.42;;;;;;;;;;5041847;28;20339;-71
2021/09/03 07:10:26;;;;;;;21.85;4.63;;;;;;;;;;5035058;28;20021;-69
2021/09/03 07:12:53;;;;;;;24.80;4.15;;;;;;;;;;5036920;28;20466;-71
2021/09/03 07:15:20;;;;;;;21.17;4.30;;;;;;;;;;5035795;28;20033;-73
2021/09/03 07:17:47;;;;;;;17.25;4.03;;;;;;;;;;5035223;28;20029;-71
2021/09/03 07:20:14;;;;;;;16.67;3.55;;;;;;;;;;5033349;28;20075;-71
2021/09/03 07:22:41;;;;;;;18.90;3.75;;;;;;;;;;5038989;28;20549;-72
2021/09/03 07:25:09;;;;;;;20.38;3.42;;;;;;;;;;5032588;28;20033;-71
2021/09/03 07:27:36;;;;;;;23.55;4.13;;;;;;;;;;5035621;28;20021;-72
2021/09/03 07:30:04;;;;;;;23.70;4.25;;;;;;;;;;5037158;28;20108;-71
2021/09/03 07:32:32;;;;;;;20.23;4.05;;;;;;;;;;5040071;28;20018;-72
2021/09/03 07:35:00;;;;;;;15.38;3.88;;;;;;;;;;5035210;28;20041;-69
2021/09/03 07:37:27;;;;;;;17.25;3.55;;;;;;;;;;5043784;28;20049;-70
2021/09/03 07:39:54;;;;;;;17.98;3.75;;;;;;;;;;5034453;28;20017;-70
2021/09/03 07:42:21;;;;;;;19.40;3.88;;;;;;;;;;5052902;28;20029;-69
2021/09/03 07:44:48;;;;;;;23.77;4.15;;;;;;;;;;5048878;28;20040;-69
2021/09/03 07:47:15;;;;;;;19.77;4.80;;;;;;;;;;5043067;28;20095;-70
2021/09/03 07:49:42;;;;;;;20.50;4.32;;;;;;;;;;5034172;28;20029;-70
2021/09/03 07:52:09;;;;;;;19.35;3.67;;;;;;;;;;5034835;28;20037;-69
2021/09/03 07:54:36;;;;;;;21.83;4.65;;;;;;;;;;5042332;28;20159;-70
2021/09/03 07:57:04;;;;;;;16.40;4.00;;;;;;;;;;5039685;28;20070;-69
2021/09/03 07:59:31;;;;;;;21.98;6.45;;;;;;;;;;5036950;28;20393;-69
2021/09/03 08:01:58;;;;;;;25.08;6.05;;;;;;;;;;5040948;28;20033;-70
2021/09/03 08:04:25;;;;;;;23.50;6.45;;;;;;;;;;5040992;28;20036;-69
2021/09/03 08:06:52;;;;;;;20.52;4.50;;;;;;;;;;5043581;28;20036;-67
2021/09/03 08:09:19;;;;;;;20.40;4.93;;;;;;;;;;5038329;28;20026;-69
2021/09/03 08:11:46;;;;;;;20.65;3.88;;;;;;;;;;5042734;28;20017;-70
2021/09/03 08:14:14;;;;;;;17.10;3.85;;;;;;;;;;5033388;28;20091;-69
2021/09/03 08:16:41;;;;;;;18.92;4.85;;;;;;;;;;5034076;28;20382;-69
2021/09/03 08:19:08;;;;;;;20.17;4.65;;;;;;;;;;5041972;28;20462;-70
2021/09/03 08:21:35;;;;;;;17.95;4.15;;;;;;;;;;5043826;28;20438;-70
2021/09/03 08:24:03;;;;;;;25.85;4.47;;;;;;;;;;5033918;28;20036;-69
2021/09/03 08:26:30;;;;;;;19.73;5.25;;;;;;;;;;5038284;28;20041;-69
2021/09/03 08:28:57;;;;;;;25.48;5.03;;;;;;;;;;5037061;28;20378;-70
2021/09/03 08:31:25;;;;;;;22.30;4.07;;;;;;;;;;5036551;28;20049;-70
2021/09/03 08:33:52;;;;;;;19.73;4.15;;;;;;;;;;5039793;28;20043;-70
2021/09/03 08:36:19;;;;;;;18.92;4.65;;;;;;;;;;5035994;28;20060;-70
2021/09/03 08:38:46;;;;;;;26.25;4.47;;;;;;;;;;5035530;28;20518;-69
2021/09/03 08:41:15;;;;;;;18.38;5.43;;;;;;;;;;5040286;28;20104;-70
2021/09/03 08:43:43;;;;;;;24.58;4.53;;;;;;;;;;5044705;28;20025;-69
2021/09/03 08:46:10;;;;;;;24.75;4.28;;;;;;;;;;5052375;28;20040;-70
2021/09/03 08:48:38;;;;;;;24.27;3.10;;;;;;;;;;5046147;28;20021;-70
2021/09/03 08:51:06;;;;;;;20.40;3.85;;;;;;;;;;5033165;28;20022;-69
2021/09/03 08:53:33;;;;;;;25.65;5.30;;;;;;;;;;5031119;28;20037;-71
2021/09/03 08:56:00;;;;;;;23.50;4.45;;;;;;;;;;5035470;28;20432;-70
2021/09/03 08:58:27;;;;;;;24.08;5.32;;;;;;;;;;5032655;28;20029;-70
2021/09/03 09:01:23;;;;;;;23.33;3.97;;;;;;;;;;5034077;28;20022;-69
2021/09/03 09:03:52;;;;;;;22.88;3.58;;;;;;;;;;5041241;28;20033;-70
2021/09/03 09:06:24;;;;;;;21.85;4.18;;;;;;;;;;5034032;28;20037;-69
2021/09/03 09:08:56;;;;;;;17.48;4.25;;;;;;;;;;5040663;28;20016;-69
2021/09/03 09:11:28;;;;;;;21.45;3.50;;;;;;;;;;5045863;28;20100;-69
2021/09/03 09:13:58;;;;;;;19.30;4.15;;;;;;;;;;5042460;28;20481;-70
2021/09/03 09:16:30;;;;;;;25.30;3.85;;;;;;;;;;5036393;28;20029;-69
2021/09/03 09:18:59;;;;;;;22.50;5.05;;;;;;;;;;5039977;28;20118;-70
2021/09/03 09:21:30;;;;;;;24.48;4.93;;;;;;;;;;5037561;28;20021;-69
2021/09/03 09:24:11;;;;;;;15.55;3.60;;;;;;;;;;5035970;28;20124;-70
2021/09/03 09:26:49;;;;;;;24.95;4.50;;;;;;;;;;5033026;28;20029;-69
2021/09/03 09:29:32;;;;;;;21.10;3.70;;;;;;;;;;5042993;28;20025;-69
2021/09/03 09:32:04;;;;;;;22.83;3.97;;;;;;;;;;5032485;28;20025;-69
2021/09/03 09:34:32;;;;;;;27.33;4.57;;;;;;;;;;5043359;28;20476;-68
2021/09/03 09:37:03;;;;;;;26.70;4.40;;;;;;;;;;5040671;28;20198;-68
2021/09/03 09:39:42;;;;;;;18.70;3.53;;;;;;;;;;5038570;28;20081;-69
2021/09/03 09:42:19;;;;;;;16.15;3.85;;;;;;;;;;5036208;28;20044;-69
2021/09/03 09:44:46;;;;;;;18.95;3.95;;;;;;;;;;5037671;28;20033;-70
2021/09/03 09:47:13;;;;;;;27.13;4.13;;;;;;;;;;5039627;28;20022;-69
2021/09/03 09:49:41;;;;;;;19.92;3.97;;;;;;;;;;5036196;28;20424;-69
2021/09/03 09:52:09;;;;;;;18.35;4.80;;;;;;;;;;5045207;28;20455;-69
2021/09/03 09:54:36;;;;;;;20.58;3.10;;;;;;;;;;5034956;28;20083;-68
2021/09/03 09:57:06;;;;;;;15.80;3.17;;;;;;;;;;5032002;28;20031;-68
2021/09/03 09:59:35;;;;;;;19.17;4.07;;;;;;;;;;5037916;28;20021;-68
2021/09/03 10:02:04;;;;;;;21.50;4.18;;;;;;;;;;5047987;28;20068;-68
2021/09/03 10:04:32;;;;;;;20.25;4.32;;;;;;;;;;5033689;28;20049;-68
2021/09/03 10:07:01;;;;;;;19.52;4.47;;;;;;;;;;5035524;28;20037;-67
2021/09/03 10:09:32;;;;;;;19.95;3.33;;;;;;;;;;5044484;28;20036;-68
2021/09/03 10:12:00;;;;;;;17.42;3.35;;;;;;;;;;5033065;28;20507;-69
2021/09/03 10:14:28;;;;;;;19.60;4.45;;;;;;;;;;5031918;28;20045;-68
2021/09/03 10:16:56;;;;;;;21.80;4.10;;;;;;;;;;5039269;28;20045;-68
2021/09/03 10:19:25;;;;;;;20.30;4.10;;;;;;;;;;5031743;28;20453;-69
2021/09/03 10:21:55;;;;;;;20.15;4.55;;;;;;;;;;5046700;28;20021;-69
2021/09/03 10:24:26;;;;;;;19.73;3.85;;;;;;;;;;5035920;28;20025;-70
2021/09/03 10:26:54;;;;;;;18.67;3.80;;;;;;;;;;5038353;28;20033;-69
2021/09/03 10:29:25;;;;;;;19.05;4.85;;;;;;;;;;5036705;28;20087;-68
2021/09/03 10:32:05;;;;;;;22.90;4.15;;;;;;;;;;5033776;28;20017;-68
2021/09/03 10:34:47;;;;;;;21.25;4.50;;;;;;;;;;5034395;28;20026;-68
2021/09/03 10:37:17;;;;;;;21.23;4.10;;;;;;;;;;5042738;28;20429;-69
2021/09/03 10:39:45;;;;;;;19.63;3.08;;;;;;;;;;5045461;28;20032;-68
2021/09/03 10:42:12;;;;;;;15.07;3.90;;;;;;;;;;5036578;28;20017;-68
2021/09/03 10:44:57;;;;;;;16.98;3.33;;;;;;;;;;5038576;28;20143;-68
2021/09/03 10:47:35;;;;;;;19.33;3.72;;;;;;;;;;5052565;28;20095;-69
2021/09/03 10:50:19;;;;;;;15.45;3.63;;;;;;;;;;5041461;28;20537;-70
2021/09/03 10:53:07;;;;;;;19.15;3.25;;;;;;;;;;5051384;28;20059;-69
2021/09/03 10:55:53;;;;;;;13.05;3.35;;;;;;;;;;5040563;28;20118;-69
2021/09/03 10:58:38;;;;;;;14.98;3.17;;;;;;;;;;5054487;28;20025;-69
2021/09/03 11:01:26;;;;;;;16.08;3.38;;;;;;;;;;5049671;28;20541;-69
2021/09/03 11:03:56;;;;;;;16.17;3.63;;;;;;;;;;5037581;28;20067;-69
2021/09/03 11:06:26;;;;;;;16.90;3.03;;;;;;;;;;5046074;28;20064;-69
2021/09/03 11:08:55;;;;;;;12.13;3.38;;;;;;;;;;5041990;28;20021;-70
2021/09/03 11:11:26;;;;;;;14.68;2.78;;;;;;;;;;5035600;28;20041;-69
2021/09/03 11:13:56;;;;;;;15.00;3.67;;;;;;;;;;5044558;28;20034;-70
2021/09/03 11:16:31;;;;;;;14.13;2.95;;;;;;;;;;5035166;28;20125;-70
2021/09/03 11:19:02;;;;;;;15.10;3.35;;;;;;;;;;5036688;28;20045;-70
2021/09/03 11:21:36;;;;;;;12.48;3.95;;;;;;;;;;5034604;28;20030;-69
2021/09/03 11:24:04;;;;;;;17.02;3.53;;;;;;;;;;5044614;28;20032;-69
2021/09/03 11:26:32;;;;;;;18.20;3.28;;;;;;;;;;5039801;28;20033;-69
2021/09/03 11:29:02;;;;;;;15.48;3.47;;;;;;;;;;5046180;28;20044;-68
2021/09/03 11:31:30;;;;;;;16.98;2.90;;;;;;;;;;5038987;28;20129;-69
2021/09/03 11:34:04;;;;;;;13.55;2.45;;;;;;;;;;5044916;28;20053;-69
2021/09/03 11:36:31;;;;;;;;;;;;;;;;;;5046109;28;20025;-69
2021/09/03 11:38:58;;;;;;;16.83;3.10;;;;;;;;;;5038887;28;19928;-68
2021/09/03 11:41:25;;;;;;;14.45;2.92;;;;;;;;;;5036626;28;20083;-69
2021/09/03 11:43:52;;;;;;;10.75;2.88;;;;;;;;;;5037693;28;20029;-68
2021/09/03 11:46:21;;;;;;;11.80;2.50;;;;;;;;;;5034431;28;20503;-69
2021/09/03 11:48:49;;;;;;;20.50;2.97;;;;;;;;;;5034693;28;20052;-69
2021/09/03 11:51:26;;;;;;;15.02;3.17;;;;;;;;;;5033110;28;20087;-69
2021/09/03 11:54:00;;;;;;;14.88;3.25;;;;;;;;;;5043870;28;20017;-69
2021/09/03 11:56:27;;;;;;;14.18;3.00;;;;;;;;;;5044421;28;20044;-70
2021/09/03 11:58:55;;;;;;;9.98;2.22;;;;;;;;;;5042090;28;20017;-69
2021/09/03 12:01:22;;;;;;;11.02;2.25;;;;;;;;;;5037798;28;20075;-69
2021/09/03 12:03:54;;;;;;;16.65;3.42;;;;;;;;;;5050975;28;20033;-69
2021/09/03 12:06:23;;;;;;;14.88;2.72;;;;;;;;;;5038216;28;20029;-69
2021/09/03 12:08:51;;;;;;;15.95;3.83;;;;;;;;;;5040574;28;20022;-68
2021/09/03 12:11:23;;;;;;;18.35;4.05;;;;;;;;;;5037537;28;20060;-69
2021/09/03 12:13:56;;;;;;;12.85;2.42;;;;;;;;;;5035353;28;20021;-69
2021/09/03 12:16:24;;;;;;;13.27;3.00;;;;;;;;;;5032361;28;20123;-68
2021/09/03 12:18:59;;;;;;;14.20;2.50;;;;;;;;;;5036077;28;20037;-69
2021/09/03 12:21:31;;;;;;;15.50;3.10;;;;;;;;;;5038115;28;20032;-69
2021/09/03 12:24:00;;;;;;;13.90;2.42;;;;;;;;;;5032838;28;20025;-69
2021/09/03 12:26:27;;;;;;;11.02;2.72;;;;;;;;;;5033222;28;20029;-70
2021/09/03 12:28:56;;;;;;;11.43;3.15;;;;;;;;;;5033692;28;20061;-70
2021/09/03 12:31:27;;;;;;;9.63;2.20;;;;;;;;;;5044977;28;20504;-70
2021/09/03 12:33:56;;;;;;;12.23;2.72;;;;;;;;;;5043218;28;20037;-71
2021/09/03 12:36:27;;;;;;;14.10;2.95;;;;;;;;;;5039186;28;20037;-69
2021/09/03 12:38:59;;;;;;;12.55;2.85;;;;;;;;;;5043649;28;20049;-70
2021/09/03 12:41:29;;;;;;;11.30;3.35;;;;;;;;;;5046927;28;20017;-70
2021/09/03 12:44:02;;;;;;;12.82;3.38;;;;;;;;;;5044275;28;20021;-68
2021/09/03 12:46:34;;;;;;;11.63;2.40;;;;;;;;;;5034133;28;20033;-69
2021/09/03 12:49:06;;;;;;;14.73;2.72;;;;;;;;;;5039531;28;20029;-69
2021/09/03 12:51:37;;;;;;;12.50;2.85;;;;;;;;;;5038058;28;20021;-70
2021/09/03 12:54:05;;;;;;;7.82;2.40;;;;;;;;;;5039921;28;20032;-69
2021/09/03 12:56:33;;;;;;;9.43;2.42;;;;;;;;;;5043348;28;20036;-69
2021/09/03 12:59:00;;;;;;;14.73;3.53;;;;;;;;;;5034284;28;20048;-68
2021/09/03 13:01:27;;;;;;;12.45;3.08;;;;;;;;;;5036903;28;20036;-68
2021/09/03 13:03:54;;;;;;;11.68;2.95;;;;;;;;;;5035002;28;20021;-69
2021/09/03 13:06:21;;;;;;;12.65;3.05;;;;;;;;;;5043513;28;20431;-69
2021/09/03 13:08:49;;;;;;;7.18;2.88;;;;;;;;;;5034965;28;20040;-69
2021/09/03 13:11:16;;;;;;;10.32;2.45;;;;;;;;;;5032543;28;20435;-68
2021/09/03 13:13:44;;;;;;;10.57;2.75;;;;;;;;;;5040716;28;20021;-69
2021/09/03 13:16:12;;;;;;;10.98;2.40;;;;;;;;;;5034132;28;20493;-68
2021/09/03 13:18:39;;;;;;;6.05;2.60;;;;;;;;;;5042115;28;20041;-68
2021/09/03 13:21:06;;;;;;;12.40;3.20;;;;;;;;;;5032679;28;20080;-68
2021/09/03 13:23:34;;;;;;;14.05;3.83;;;;;;;;;;5032902;28;20544;-68
2021/09/03 13:26:02;;;;;;;12.32;3.22;;;;;;;;;;5032116;28;20119;-69
2021/09/03 13:28:29;;;;;;;10.35;3.35;;;;;;;;;;5039583;28;20059;-68
2021/09/03 13:30:56;;;;;;;14.50;3.47;;;;;;;;;;5040002;28;20024;-68
2021/09/03 13:33:23;;;;;;;12.50;3.47;;;;;;;;;;5039255;28;20033;-69
2021/09/03 13:35:50;;;;;;;15.52;3.15;;;;;;;;;;5034906;28;20481;-69
2021/09/03 13:38:17;;;;;;;13.80;3.08;;;;;;;;;;5038659;28;20045;-70
2021/09/03 13:40:44;;;;;;;9.15;3.03;;;;;;;;;;5037623;28;20023;-69
2021/09/03 13:43:11;;;;;;;10.57;2.42;;;;;;;;;;5040464;28;20068;-69
2021/09/03 13:45:40;;;;;;;12.88;3.15;;;;;;;;;;5037647;28;20394;-69
2021/09/03 13:48:08;;;;;;;13.85;2.80;;;;;;;;;;5033322;28;20045;-69
2021/09/03 13:50:38;;;;;;;10.48;2.72;;;;;;;;;;5045252;28;20553;-69
2021/09/03 13:53:08;;;;;;;11.55;2.83;;;;;;;;;;5041831;28;20132;-69
2021/09/03 13:55:35;;;;;;;11.18;2.58;;;;;;;;;;5037028;28;20037;-69
2021/09/03 13:58:03;;;;;;;11.98;2.60;;;;;;;;;;5035411;28;20565;-69
2021/09/03 14:00:31;;;;;;;11.95;2.53;;;;;;;;;;5034356;28;20052;-69
2021/09/03 14:02:58;;;;;;;10.73;2.20;;;;;;;;;;5043738;28;20034;-69
2021/09/03 14:05:26;;;;;;;10.85;3.05;;;;;;;;;;5032631;28;20036;-69
2021/09/03 14:07:53;;;;;;;10.23;2.75;;;;;;;;;;5042709;28;20040;-69
2021/09/03 14:10:20;;;;;;;11.70;3.08;;;;;;;;;;5036398;28;20112;-69
2021/09/03 14:12:47;;;;;;;10.13;2.63;;;;;;;;;;5032474;28;20355;-69
2021/09/03 14:15:15;;;;;;;8.18;2.70;;;;;;;;;;5037106;28;20054;-69
2021/09/03 14:17:42;;;;;;;10.77;2.83;;;;;;;;;;5032466;28;20030;-69
2021/09/03 14:20:10;;;;;;;19.73;3.80;;;;;;;;;;5039189;28;20029;-69
2021/09/03 14:22:37;;;;;;;11.85;3.25;;;;;;;;;;5040275;28;20474;-69
2021/09/03 14:25:05;;;;;;;9.82;2.80;;;;;;;;;;5031505;28;20033;-69
2021/09/03 14:27:32;;;;;;;8.23;2.42;;;;;;;;;;5038428;28;20021;-69
2021/09/03 14:29:59;;;;;;;9.98;3.00;;;;;;;;;;5035224;28;20033;-69
2021/09/03 14:32:26;;;;;;;11.07;3.38;;;;;;;;;;5034972;28;20022;-69
2021/09/03 14:34:53;;;;;;;7.68;2.80;;;;;;;;;;5033507;28;20032;-69
2021/09/03 14:37:21;;;;;;;11.13;3.00;;;;;;;;;;5041302;28;20045;-69
2021/09/03 14:39:48;;;;;;;11.05;2.88;;;;;;;;;;5048465;28;20033;-69
2021/09/03 14:42:18;;;;;;;15.50;3.13;;;;;;;;;;5031729;28;20530;-69